sensor_id;sensor_type;location;lat;lon;timestamp;temperature;humidity
16907;DHT22;8570;52.380;4.654;2023-07-29T00:02:56;18.20;99.90
16907;DHT22;8570;52.380;4.654;2023-07-29T00:07:58;18.20;99.90
16907;DHT22;8570;52.380;4.654;2023-07-29T00:13:03;18.20;99.90
16907;DHT22;8570;52.380;4.654;2023-07-29T00:18:06;18.20;99.90
16907;DHT22;8570;52.380;4.654;2023-07-29T00:23:08;18.10;99.90
16907;DHT22;8570;52.380;4.654;2023-07-29T00:28:11;18.10;99.90
16907;DHT22;8570;52.380;4.654;2023-07-29T00:33:13;18.00;99.90
16907;DHT22;8570;52.380;4.654;2023-07-29T00:38:15;18.00;99.90
16907;DHT22;8570;52.380;4.654;2023-07-29T00:43:18;18.00;99.90
16907;DHT22;8570;52.380;4.654;2023-07-29T00:48:22;18.00;99.90
16907;DHT22;8570;52.380;4.654;2023-07-29T00:53:26;17.90;99.90
16907;DHT22;8570;52.380;4.654;2023-07-29T00:58:30;17.90;99.90
16907;DHT22;8570;52.380;4.654;2023-07-29T01:03:32;17.90;99.90
16907;DHT22;8570;52.380;4.654;2023-07-29T01:08:52;17.90;99.90
16907;DHT22;8570;52.380;4.654;2023-07-29T01:14:02;17.90;99.90
16907;DHT22;8570;52.380;4.654;2023-07-29T01:19:06;17.90;99.90
16907;DHT22;8570;52.380;4.654;2023-07-29T01:24:10;17.90;99.90
16907;DHT22;8570;52.380;4.654;2023-07-29T01:29:12;17.80;99.90
16907;DHT22;8570;52.380;4.654;2023-07-29T01:34:20;17.80;99.90
16907;DHT22;8570;52.380;4.654;2023-07-29T01:39:30;17.80;99.90
16907;DHT22;8570;52.380;4.654;2023-07-29T01:44:34;17.80;99.90
16907;DHT22;8570;52.380;4.654;2023-07-29T01:49:37;17.70;99.90
16907;DHT22;8570;52.380;4.654;2023-07-29T01:54:40;17.70;99.90
16907;DHT22;8570;52.380;4.654;2023-07-29T01:59:42;17.70;99.90
16907;DHT22;8570;52.380;4.654;2023-07-29T02:04:44;17.70;99.90
16907;DHT22;8570;52.380;4.654;2023-07-29T02:09:53;17.70;99.90
16907;DHT22;8570;52.380;4.654;2023-07-29T02:14:55;17.70;99.90
16907;DHT22;8570;52.380;4.654;2023-07-29T02:19:57;17.70;99.90
16907;DHT22;8570;52.380;4.654;2023-07-29T02:25:07;17.70;99.90
16907;DHT22;8570;52.380;4.654;2023-07-29T02:30:11;17.70;99.90
16907;DHT22;8570;52.380;4.654;2023-07-29T02:35:13;17.70;99.90
16907;DHT22;8570;52.380;4.654;2023-07-29T02:40:31;17.70;99.90
16907;DHT22;8570;52.380;4.654;2023-07-29T02:45:33;17.80;99.90
16907;DHT22;8570;52.380;4.654;2023-07-29T02:50:35;17.80;99.90
16907;DHT22;8570;52.380;4.654;2023-07-29T02:55:40;17.80;99.90
16907;DHT22;8570;52.380;4.654;2023-07-29T03:00:42;17.80;99.90
16907;DHT22;8570;52.380;4.654;2023-07-29T03:05:44;17.80;99.90
16907;DHT22;8570;52.380;4.654;2023-07-29T03:10:48;17.80;99.90
16907;DHT22;8570;52.380;4.654;2023-07-29T03:15:50;17.80;99.90
16907;DHT22;8570;52.380;4.654;2023-07-29T03:20:55;17.80;99.90
16907;DHT22;8570;52.380;4.654;2023-07-29T03:26:00;17.70;99.90
16907;DHT22;8570;52.380;4.654;2023-07-29T03:31:02;17.70;99.90
16907;DHT22;8570;52.380;4.654;2023-07-29T03:36:04;17.70;99.90
16907;DHT22;8570;52.380;4.654;2023-07-29T03:41:10;17.60;99.90
16907;DHT22;8570;52.380;4.654;2023-07-29T03:46:12;17.60;99.90
16907;DHT22;8570;52.380;4.654;2023-07-29T03:51:14;17.60;99.90
16907;DHT22;8570;52.380;4.654;2023-07-29T03:56:17;17.60;99.90
16907;DHT22;8570;52.380;4.654;2023-07-29T04:01:20;17.50;99.90
16907;DHT22;8570;52.380;4.654;2023-07-29T04:06:22;17.50;99.90
16907;DHT22;8570;52.380;4.654;2023-07-29T04:11:26;17.50;99.90
16907;DHT22;8570;52.380;4.654;2023-07-29T04:16:28;17.50;99.90
16907;DHT22;8570;52.380;4.654;2023-07-29T04:21:30;17.50;99.90
16907;DHT22;8570;52.380;4.654;2023-07-29T04:26:34;17.50;99.90
16907;DHT22;8570;52.380;4.654;2023-07-29T04:31:36;17.50;99.90
16907;DHT22;8570;52.380;4.654;2023-07-29T04:36:38;17.50;99.90
16907;DHT22;8570;52.380;4.654;2023-07-29T04:41:41;17.60;99.90
16907;DHT22;8570;52.380;4.654;2023-07-29T04:46:43;17.60;99.90
16907;DHT22;8570;52.380;4.654;2023-07-29T04:51:45;17.70;99.90
16907;DHT22;8570;52.380;4.654;2023-07-29T04:56:49;17.70;99.90
16907;DHT22;8570;52.380;4.654;2023-07-29T05:01:51;17.80;99.90
16907;DHT22;8570;52.380;4.654;2023-07-29T05:06:55;17.90;99.90
16907;DHT22;8570;52.380;4.654;2023-07-29T05:12:02;18.00;99.90
16907;DHT22;8570;52.380;4.654;2023-07-29T05:17:05;18.00;99.90
16907;DHT22;8570;52.380;4.654;2023-07-29T05:22:07;18.10;99.90
16907;DHT22;8570;52.380;4.654;2023-07-29T05:27:12;18.10;99.90
16907;DHT22;8570;52.380;4.654;2023-07-29T05:32:14;18.10;99.90
16907;DHT22;8570;52.380;4.654;2023-07-29T05:37:16;18.20;99.90
16907;DHT22;8570;52.380;4.654;2023-07-29T05:42:19;18.20;99.90
16907;DHT22;8570;52.380;4.654;2023-07-29T05:47:24;18.20;99.90
16907;DHT22;8570;52.380;4.654;2023-07-29T05:52:26;18.30;99.90
16907;DHT22;8570;52.380;4.654;2023-07-29T05:57:30;18.40;99.90
16907;DHT22;8570;52.380;4.654;2023-07-29T06:02:32;18.40;99.90
16907;DHT22;8570;52.380;4.654;2023-07-29T06:07:34;18.50;99.90
16907;DHT22;8570;52.380;4.654;2023-07-29T06:12:40;18.50;99.90
16907;DHT22;8570;52.380;4.654;2023-07-29T06:17:44;18.50;99.90
16907;DHT22;8570;52.380;4.654;2023-07-29T06:22:47;18.60;99.90
16907;DHT22;8570;52.380;4.654;2023-07-29T06:27:50;18.60;99.90
16907;DHT22;8570;52.380;4.654;2023-07-29T06:32:52;18.60;99.90
16907;DHT22;8570;52.380;4.654;2023-07-29T06:37:54;18.60;99.90
16907;DHT22;8570;52.380;4.654;2023-07-29T06:42:57;18.60;99.90
16907;DHT22;8570;52.380;4.654;2023-07-29T06:47:59;18.70;99.90
16907;DHT22;8570;52.380;4.654;2023-07-29T06:53:02;18.70;99.90
16907;DHT22;8570;52.380;4.654;2023-07-29T06:58:07;18.80;99.90
16907;DHT22;8570;52.380;4.654;2023-07-29T07:03:10;18.90;99.90
16907;DHT22;8570;52.380;4.654;2023-07-29T07:08:12;18.80;99.90
16907;DHT22;8570;52.380;4.654;2023-07-29T07:13:15;18.80;99.90
16907;DHT22;8570;52.380;4.654;2023-07-29T07:18:17;18.80;99.90
16907;DHT22;8570;52.380;4.654;2023-07-29T07:23:19;18.90;99.90
16907;DHT22;8570;52.380;4.654;2023-07-29T07:28:23;18.90;99.90
16907;DHT22;8570;52.380;4.654;2023-07-29T07:33:24;19.00;99.90
16907;DHT22;8570;52.380;4.654;2023-07-29T07:38:29;19.10;99.90
16907;DHT22;8570;52.380;4.654;2023-07-29T07:43:35;19.10;99.90
16907;DHT22;8570;52.380;4.654;2023-07-29T07:48:37;19.10;99.90
16907;DHT22;8570;52.380;4.654;2023-07-29T07:53:40;18.90;99.90
16907;DHT22;8570;52.380;4.654;2023-07-29T07:58:44;18.90;99.90
16907;DHT22;8570;52.380;4.654;2023-07-29T08:03:46;18.80;99.90
16907;DHT22;8570;52.380;4.654;2023-07-29T08:08:48;18.80;99.90
16907;DHT22;8570;52.380;4.654;2023-07-29T08:13:51;18.80;99.90
16907;DHT22;8570;52.380;4.654;2023-07-29T08:18:53;18.90;99.90
16907;DHT22;8570;52.380;4.654;2023-07-29T08:23:55;18.80;99.90
16907;DHT22;8570;52.380;4.654;2023-07-29T08:28:58;18.80;99.90
16907;DHT22;8570;52.380;4.654;2023-07-29T08:34:01;18.80;99.90
16907;DHT22;8570;52.380;4.654;2023-07-29T08:39:03;18.90;99.90
16907;DHT22;8570;52.380;4.654;2023-07-29T08:44:13;19.10;99.90
16907;DHT22;8570;52.380;4.654;2023-07-29T08:49:18;19.10;99.90
16907;DHT22;8570;52.380;4.654;2023-07-29T08:54:21;19.20;99.90
16907;DHT22;8570;52.380;4.654;2023-07-29T08:59:27;19.20;99.90
16907;DHT22;8570;52.380;4.654;2023-07-29T09:04:30;19.20;99.90
16907;DHT22;8570;52.380;4.654;2023-07-29T09:09:35;19.20;99.90
16907;DHT22;8570;52.380;4.654;2023-07-29T09:14:46;19.20;99.90
16907;DHT22;8570;52.380;4.654;2023-07-29T09:19:52;19.20;99.90
16907;DHT22;8570;52.380;4.654;2023-07-29T09:24:57;19.20;99.90
16907;DHT22;8570;52.380;4.654;2023-07-29T09:30:01;19.20;99.90
16907;DHT22;8570;52.380;4.654;2023-07-29T09:35:12;19.20;99.90
16907;DHT22;8570;52.380;4.654;2023-07-29T09:40:21;19.30;99.90
16907;DHT22;8570;52.380;4.654;2023-07-29T09:45:30;19.40;99.90
16907;DHT22;8570;52.380;4.654;2023-07-29T09:50:34;19.50;99.90
16907;DHT22;8570;52.380;4.654;2023-07-29T09:55:37;19.60;99.90
16907;DHT22;8570;52.380;4.654;2023-07-29T10:00:42;19.70;99.90
16907;DHT22;8570;52.380;4.654;2023-07-29T10:05:45;19.70;99.90
16907;DHT22;8570;52.380;4.654;2023-07-29T10:10:47;19.70;99.90
16907;DHT22;8570;52.380;4.654;2023-07-29T10:15:53;19.60;99.90
16907;DHT22;8570;52.380;4.654;2023-07-29T10:21:00;19.50;99.90
16907;DHT22;8570;52.380;4.654;2023-07-29T10:26:03;19.40;99.90
16907;DHT22;8570;52.380;4.654;2023-07-29T10:31:07;19.40;99.90
16907;DHT22;8570;52.380;4.654;2023-07-29T10:36:10;19.30;99.90
16907;DHT22;8570;52.380;4.654;2023-07-29T10:41:12;19.20;99.90
16907;DHT22;8570;52.380;4.654;2023-07-29T10:46:19;19.20;99.90
16907;DHT22;8570;52.380;4.654;2023-07-29T10:51:26;19.20;99.90
16907;DHT22;8570;52.380;4.654;2023-07-29T10:56:33;19.30;99.90
16907;DHT22;8570;52.380;4.654;2023-07-29T11:01:40;19.60;99.90
16907;DHT22;8570;52.380;4.654;2023-07-29T11:12:38;20.00;99.90
16907;DHT22;8570;52.380;4.654;2023-07-29T11:17:45;20.20;99.90
16907;DHT22;8570;52.380;4.654;2023-07-29T11:22:47;20.20;99.90
16907;DHT22;8570;52.380;4.654;2023-07-29T11:27:50;20.20;99.90
16907;DHT22;8570;52.380;4.654;2023-07-29T11:32:54;20.30;99.90
16907;DHT22;8570;52.380;4.654;2023-07-29T11:37:56;20.30;99.90
16907;DHT22;8570;52.380;4.654;2023-07-29T11:42:58;20.30;99.90
16907;DHT22;8570;52.380;4.654;2023-07-29T11:48:02;20.30;99.90
16907;DHT22;8570;52.380;4.654;2023-07-29T11:53:05;20.20;99.90
16907;DHT22;8570;52.380;4.654;2023-07-29T11:58:11;20.30;99.90
16907;DHT22;8570;52.380;4.654;2023-07-29T12:03:14;20.40;99.90
16907;DHT22;8570;52.380;4.654;2023-07-29T12:08:21;20.60;99.90
16907;DHT22;8570;52.380;4.654;2023-07-29T12:13:24;21.00;99.90
16907;DHT22;8570;52.380;4.654;2023-07-29T12:18:31;21.30;99.90
16907;DHT22;8570;52.380;4.654;2023-07-29T12:23:33;21.50;99.90
16907;DHT22;8570;52.380;4.654;2023-07-29T12:28:37;21.50;99.90
16907;DHT22;8570;52.380;4.654;2023-07-29T12:33:40;21.40;99.90
16907;DHT22;8570;52.380;4.654;2023-07-29T12:38:43;21.40;99.90
16907;DHT22;8570;52.380;4.654;2023-07-29T12:43:45;21.40;99.90
16907;DHT22;8570;52.380;4.654;2023-07-29T12:48:49;21.50;99.90
16907;DHT22;8570;52.380;4.654;2023-07-29T12:53:50;21.70;99.90
16907;DHT22;8570;52.380;4.654;2023-07-29T12:58:52;21.70;99.90
16907;DHT22;8570;52.380;4.654;2023-07-29T13:03:58;21.90;99.90
16907;DHT22;8570;52.380;4.654;2023-07-29T13:09:00;22.00;99.90
16907;DHT22;8570;52.380;4.654;2023-07-29T13:14:02;22.00;99.90
16907;DHT22;8570;52.380;4.654;2023-07-29T13:19:05;22.00;99.90
16907;DHT22;8570;52.380;4.654;2023-07-29T13:24:07;21.90;99.90
16907;DHT22;8570;52.380;4.654;2023-07-29T13:29:09;21.80;99.90
16907;DHT22;8570;52.380;4.654;2023-07-29T13:34:15;21.70;99.90
16907;DHT22;8570;52.380;4.654;2023-07-29T13:39:17;21.60;99.90
16907;DHT22;8570;52.380;4.654;2023-07-29T13:44:20;21.60;99.90
16907;DHT22;8570;52.380;4.654;2023-07-29T13:49:23;21.50;99.90
16907;DHT22;8570;52.380;4.654;2023-07-29T13:54:25;21.50;99.90
16907;DHT22;8570;52.380;4.654;2023-07-29T13:59:29;21.70;99.90
16907;DHT22;8570;52.380;4.654;2023-07-29T14:04:33;21.90;99.90
16907;DHT22;8570;52.380;4.654;2023-07-29T14:09:35;22.00;99.90
16907;DHT22;8570;52.380;4.654;2023-07-29T14:14:39;22.10;99.90
16907;DHT22;8570;52.380;4.654;2023-07-29T14:19:42;22.00;99.90
16907;DHT22;8570;52.380;4.654;2023-07-29T14:24:44;22.10;99.90
16907;DHT22;8570;52.380;4.654;2023-07-29T14:29:46;22.00;99.90
16907;DHT22;8570;52.380;4.654;2023-07-29T14:35:03;22.10;99.90
16907;DHT22;8570;52.380;4.654;2023-07-29T14:40:17;22.10;99.90
16907;DHT22;8570;52.380;4.654;2023-07-29T14:45:28;22.20;99.90
16907;DHT22;8570;52.380;4.654;2023-07-29T14:50:40;22.20;99.90
16907;DHT22;8570;52.380;4.654;2023-07-29T14:55:46;22.30;99.90
16907;DHT22;8570;52.380;4.654;2023-07-29T15:00:48;22.30;99.90
16907;DHT22;8570;52.380;4.654;2023-07-29T15:05:54;22.30;99.90
16907;DHT22;8570;52.380;4.654;2023-07-29T15:11:02;22.40;99.90
16907;DHT22;8570;52.380;4.654;2023-07-29T15:16:05;22.50;99.90
16907;DHT22;8570;52.380;4.654;2023-07-29T15:21:09;22.50;99.90
16907;DHT22;8570;52.380;4.654;2023-07-29T15:26:11;22.50;99.90
16907;DHT22;8570;52.380;4.654;2023-07-29T15:31:13;22.50;99.90
16907;DHT22;8570;52.380;4.654;2023-07-29T15:36:17;22.50;99.90
16907;DHT22;8570;52.380;4.654;2023-07-29T15:41:19;22.60;99.90
16907;DHT22;8570;52.380;4.654;2023-07-29T15:46:21;22.40;99.90
16907;DHT22;8570;52.380;4.654;2023-07-29T15:51:25;22.30;99.90
16907;DHT22;8570;52.380;4.654;2023-07-29T15:56:27;22.20;99.90
16907;DHT22;8570;52.380;4.654;2023-07-29T16:01:29;22.30;99.90
16907;DHT22;8570;52.380;4.654;2023-07-29T16:06:34;22.50;99.90
16907;DHT22;8570;52.380;4.654;2023-07-29T16:11:38;22.50;99.90
16907;DHT22;8570;52.380;4.654;2023-07-29T16:16:41;22.40;99.90
16907;DHT22;8570;52.380;4.654;2023-07-29T16:21:44;22.40;99.90
16907;DHT22;8570;52.380;4.654;2023-07-29T16:26:46;22.40;99.90
16907;DHT22;8570;52.380;4.654;2023-07-29T16:31:48;22.40;99.90
16907;DHT22;8570;52.380;4.654;2023-07-29T16:36:52;22.20;99.90
16907;DHT22;8570;52.380;4.654;2023-07-29T16:41:54;22.20;99.90
16907;DHT22;8570;52.380;4.654;2023-07-29T16:46:56;22.10;99.90
16907;DHT22;8570;52.380;4.654;2023-07-29T16:51:59;22.00;99.90
16907;DHT22;8570;52.380;4.654;2023-07-29T16:57:01;21.80;99.90
16907;DHT22;8570;52.380;4.654;2023-07-29T17:02:03;21.70;99.90
16907;DHT22;8570;52.380;4.654;2023-07-29T17:07:08;21.60;99.90
16907;DHT22;8570;52.380;4.654;2023-07-29T17:12:10;21.50;99.90
16907;DHT22;8570;52.380;4.654;2023-07-29T17:17:12;21.40;99.90
16907;DHT22;8570;52.380;4.654;2023-07-29T17:22:26;21.40;99.90
16907;DHT22;8570;52.380;4.654;2023-07-29T17:27:42;21.30;99.90
16907;DHT22;8570;52.380;4.654;2023-07-29T17:32:44;21.30;99.90
16907;DHT22;8570;52.380;4.654;2023-07-29T17:37:48;21.10;99.90
16907;DHT22;8570;52.380;4.654;2023-07-29T17:42:50;21.00;99.90
16907;DHT22;8570;52.380;4.654;2023-07-29T17:47:52;20.90;99.90
16907;DHT22;8570;52.380;4.654;2023-07-29T17:52:55;20.80;99.90
16907;DHT22;8570;52.380;4.654;2023-07-29T17:57:58;20.70;99.90
16907;DHT22;8570;52.380;4.654;2023-07-29T18:03:00;20.60;99.90
16907;DHT22;8570;52.380;4.654;2023-07-29T18:08:04;20.60;99.90
16907;DHT22;8570;52.380;4.654;2023-07-29T18:13:06;20.60;99.90
16907;DHT22;8570;52.380;4.654;2023-07-29T18:18:08;20.50;99.90
16907;DHT22;8570;52.380;4.654;2023-07-29T18:23:11;20.40;99.90
16907;DHT22;8570;52.380;4.654;2023-07-29T18:28:15;20.30;99.90
16907;DHT22;8570;52.380;4.654;2023-07-29T18:33:17;20.30;99.90
16907;DHT22;8570;52.380;4.654;2023-07-29T18:38:21;20.20;99.90
16907;DHT22;8570;52.380;4.654;2023-07-29T18:43:25;20.10;99.90
16907;DHT22;8570;52.380;4.654;2023-07-29T18:48:27;20.00;99.90
16907;DHT22;8570;52.380;4.654;2023-07-29T18:53:31;20.00;99.90
16907;DHT22;8570;52.380;4.654;2023-07-29T18:58:36;19.90;99.90
16907;DHT22;8570;52.380;4.654;2023-07-29T19:03:38;19.80;99.90
16907;DHT22;8570;52.380;4.654;2023-07-29T19:08:43;19.70;99.90
16907;DHT22;8570;52.380;4.654;2023-07-29T19:13:45;19.60;99.90
16907;DHT22;8570;52.380;4.654;2023-07-29T19:18:48;19.60;99.90
16907;DHT22;8570;52.380;4.654;2023-07-29T19:23:51;19.50;99.90
16907;DHT22;8570;52.380;4.654;2023-07-29T19:28:53;19.40;99.90
16907;DHT22;8570;52.380;4.654;2023-07-29T19:33:55;19.30;99.90
16907;DHT22;8570;52.380;4.654;2023-07-29T19:38:59;19.30;99.90
16907;DHT22;8570;52.380;4.654;2023-07-29T19:44:01;19.20;99.90
16907;DHT22;8570;52.380;4.654;2023-07-29T19:49:03;19.20;99.90
16907;DHT22;8570;52.380;4.654;2023-07-29T19:54:06;19.10;99.90
16907;DHT22;8570;52.380;4.654;2023-07-29T19:59:08;19.10;99.90
16907;DHT22;8570;52.380;4.654;2023-07-29T20:04:10;19.10;99.90
16907;DHT22;8570;52.380;4.654;2023-07-29T20:09:13;19.00;99.90
16907;DHT22;8570;52.380;4.654;2023-07-29T20:14:15;19.00;99.90
16907;DHT22;8570;52.380;4.654;2023-07-29T20:19:17;18.90;99.90
16907;DHT22;8570;52.380;4.654;2023-07-29T20:24:20;18.90;99.90
16907;DHT22;8570;52.380;4.654;2023-07-29T20:29:25;18.80;99.90
16907;DHT22;8570;52.380;4.654;2023-07-29T20:34:27;18.80;99.90
16907;DHT22;8570;52.380;4.654;2023-07-29T20:39:31;18.80;99.90
16907;DHT22;8570;52.380;4.654;2023-07-29T20:44:33;18.70;99.90
16907;DHT22;8570;52.380;4.654;2023-07-29T20:49:35;18.60;99.90
16907;DHT22;8570;52.380;4.654;2023-07-29T20:54:39;18.60;99.90
16907;DHT22;8570;52.380;4.654;2023-07-29T20:59:41;18.60;99.90
16907;DHT22;8570;52.380;4.654;2023-07-29T21:04:43;18.60;99.90
16907;DHT22;8570;52.380;4.654;2023-07-29T21:09:46;18.50;99.90
16907;DHT22;8570;52.380;4.654;2023-07-29T21:14:48;18.50;99.90
16907;DHT22;8570;52.380;4.654;2023-07-29T21:19:50;18.40;99.90
16907;DHT22;8570;52.380;4.654;2023-07-29T21:24:54;18.40;99.90
16907;DHT22;8570;52.380;4.654;2023-07-29T21:29:56;18.40;99.90
16907;DHT22;8570;52.380;4.654;2023-07-29T21:34:58;18.30;99.90
16907;DHT22;8570;52.380;4.654;2023-07-29T21:40:01;18.30;99.90
16907;DHT22;8570;52.380;4.654;2023-07-29T21:45:05;18.20;99.90
16907;DHT22;8570;52.380;4.654;2023-07-29T21:50:08;18.20;99.90
16907;DHT22;8570;52.380;4.654;2023-07-29T21:55:11;18.20;99.90
16907;DHT22;8570;52.380;4.654;2023-07-29T22:00:14;18.10;99.90
16907;DHT22;8570;52.380;4.654;2023-07-29T22:05:16;18.10;99.90
16907;DHT22;8570;52.380;4.654;2023-07-29T22:10:20;18.10;99.90
16907;DHT22;8570;52.380;4.654;2023-07-29T22:15:22;18.10;99.90
16907;DHT22;8570;52.380;4.654;2023-07-29T22:20:27;18.00;99.90
16907;DHT22;8570;52.380;4.654;2023-07-29T22:25:32;18.00;99.90
16907;DHT22;8570;52.380;4.654;2023-07-29T22:30:35;18.00;99.90
16907;DHT22;8570;52.380;4.654;2023-07-29T22:35:38;18.00;99.90
16907;DHT22;8570;52.380;4.654;2023-07-29T22:40:50;18.00;99.90
16907;DHT22;8570;52.380;4.654;2023-07-29T22:45:54;17.90;99.90
16907;DHT22;8570;52.380;4.654;2023-07-29T22:50:58;17.90;99.90
16907;DHT22;8570;52.380;4.654;2023-07-29T22:56:01;17.90;99.90
16907;DHT22;8570;52.380;4.654;2023-07-29T23:01:03;17.90;99.90
16907;DHT22;8570;52.380;4.654;2023-07-29T23:06:05;17.90;99.90
16907;DHT22;8570;52.380;4.654;2023-07-29T23:11:09;17.80;99.90
16907;DHT22;8570;52.380;4.654;2023-07-29T23:16:11;17.80;99.90
16907;DHT22;8570;52.380;4.654;2023-07-29T23:21:13;17.80;99.90
16907;DHT22;8570;52.380;4.654;2023-07-29T23:26:16;17.80;99.90
16907;DHT22;8570;52.380;4.654;2023-07-29T23:31:18;17.90;99.90
16907;DHT22;8570;52.380;4.654;2023-07-29T23:36:20;17.90;99.90
16907;DHT22;8570;52.380;4.654;2023-07-29T23:41:24;17.80;99.90
16907;DHT22;8570;52.380;4.654;2023-07-29T23:46:35;17.90;99.90
16907;DHT22;8570;52.380;4.654;2023-07-29T23:51:37;17.90;99.90
16907;DHT22;8570;52.380;4.654;2023-07-29T23:56:41;18.00;99.90
